YMMLYWGT

Guest
Details From YMML - Melbourne Intl
To YWGT - Wangaratta
Flight Number -
Tags Generated
Created
Modified
Stats Distance 102 nm / 189 km
Max Altitude 0 ft / 0 m
Waypoints 2
Social Downloads 1
Likes 0
Share VATSIM

Download

Looking for another format? Having issues loading an existing format? Contact us
Advertisement - Login to hide

Notes

Generated

Route

YMML YWGT

ID Type Via Altitude Latitude Longitude Leg Dist Tot Dist Heading (true) Name
O YMML APT - 0 ft / 0 m -37.66220˚ 144.84819˚ - 0 nm - -
O YWGT APT - 0 ft / 0 m -36.41899˚ 146.30013˚ 102 nm 102 nm 43° / 43° -

Altitude Profile

Advertisement - Login to hide

YMML

Details ICAO YMML (MEL)
Name Melbourne Intl
Region Australia
Timezone Australia/Melbourne (UTC+10.0)
Stats Elevation 433 ft / 132 m (AMSL)
Location -37.665301° 144.836668°
Runways 2
Magnetic Variation 11.508° E

METAR

YMML 262100Z 01012KT CAVOK 10/07 Q1024 FM2100 MOD TURB BLW 5000FT

Decode

TAF

TAF YMML 261709Z 2618/2724 36012KT CAVOK FM270000 01018G34KT CAVOK FM270800 01014KT CAVOK FM272200 01016G28KT CAVOK

Decode

Departure Runways

ID Width Length Bearing (true) Bearing (mag) Surface Threshold Offset Overrun Length
09 148 ft / 45 m 7,494 ft / 2,284 m 94.01° 82.50° Asphalt 0 ft / 0 m 0 ft / 0 m
16 148 ft / 45 m 12,008 ft / 3,660 m 171.02° 159.51° Asphalt 98 ft / 30 m 0 ft / 0 m
27 148 ft / 45 m 7,494 ft / 2,284 m 274.00° 262.49° Asphalt 0 ft / 0 m 0 ft / 0 m
34 148 ft / 45 m 12,008 ft / 3,660 m 351.01° 339.50° Asphalt 98 ft / 30 m 0 ft / 0 m

YWGT

Details ICAO YWGT
Name Wangaratta
Region Australia
Timezone Australia/Melbourne (UTC+10.0)
Stats Elevation 504 ft / 154 m (AMSL)
Location -36.417393° 146.305505°
Runways 2
Magnetic Variation 11.683° E

METAR

YWGT 262130Z AUTO 21004KT 9000 // SCT067 03/03 Q1027

Decode

TAF

TAF YWGT 261840Z 2620/2708 VRB05KT CAVOK FM270200 03008KT CAVOK PROB30 2620/2623 0500 FG

Decode

Destination Runways

ID Width Length Bearing (true) Bearing (mag) Surface Threshold Offset Overrun Length
18 98 ft / 30 m 5,387 ft / 1,642 m 188.10° 176.42° Asphalt 0 ft / 0 m 0 ft / 0 m
27 164 ft / 50 m 2,008 ft / 612 m 277.80° 266.12° Grass 0 ft / 0 m 0 ft / 0 m
36 98 ft / 30 m 5,387 ft / 1,642 m 8.11° 356.43° Asphalt 0 ft / 0 m 0 ft / 0 m
9 164 ft / 50 m 2,008 ft / 612 m 97.80° 86.12° Grass 0 ft / 0 m 0 ft / 0 m

Popular Alternatives